Time;durP1;ratioP1;P1;durP2;ratioP2;P2;SDS_P1;SDS_P2;PMS_P1;PMS_P2;Temp;Humidity;BMP_temperature;BMP_pressure;BME280_temperature;BME280_humidity;BME280_pressure;Samples;Min_cycle;Max_cycle;Signal;HPM_P1;HPM_P2
2024/02/02 00:01:09;;;;;;;22.63;8.27;;;4.40;99.90;;;;;;4885195;28;20109;-54
2024/02/02 00:03:36;;;;;;;20.60;7.30;;;4.50;99.90;;;;;;4919404;28;20154;-50
2024/02/02 00:06:02;;;;;;;18.90;7.60;;;4.50;99.90;;;;;;4905113;28;21028;-50
2024/02/02 00:08:28;;;;;;;14.90;6.32;;;4.40;99.90;;;;;;4946614;28;20034;-53
2024/02/02 00:10:55;;;;;;;16.15;5.72;;;4.40;99.90;;;;;;4902889;28;20042;-58
2024/02/02 00:13:21;;;;;;;13.65;5.18;;;4.40;99.90;;;;;;4902911;28;20089;-53
2024/02/02 00:15:47;;;;;;;15.52;5.45;;;4.40;99.90;;;;;;4888585;28;20041;-53
2024/02/02 00:18:12;;;;;;;17.83;5.22;;;4.40;99.90;;;;;;4918399;28;20100;-51
2024/02/02 00:20:38;;;;;;;15.18;4.80;;;4.40;99.90;;;;;;4958621;28;20034;-58
2024/02/02 00:23:04;;;;;;;14.60;4.68;;;4.40;99.90;;;;;;4902081;28;20041;-52
2024/02/02 00:25:30;;;;;;;10.10;4.25;;;4.40;99.90;;;;;;4897190;28;20065;-50
2024/02/02 00:27:55;;;;;;;12.30;3.92;;;4.40;99.90;;;;;;4894073;28;20906;-53
2024/02/02 00:30:21;;;;;;;7.63;3.88;;;4.40;99.90;;;;;;4899069;28;20519;-48
2024/02/02 00:32:47;;;;;;;14.27;4.47;;;4.40;99.90;;;;;;4932665;28;20030;-58
2024/02/02 00:35:13;;;;;;;15.70;4.93;;;4.40;99.90;;;;;;4938791;28;20030;-51
2024/02/02 00:37:40;;;;;;;14.50;4.80;;;4.40;99.90;;;;;;4906802;28;20061;-54
2024/02/02 00:40:06;;;;;;;11.18;4.13;;;4.40;99.90;;;;;;4893964;28;20141;-55
2024/02/02 00:42:32;;;;;;;16.58;4.78;;;4.40;99.90;;;;;;4900657;28;20031;-58
2024/02/02 00:44:59;;;;;;;9.02;4.90;;;4.40;99.90;;;;;;4869818;28;20477;-52
2024/02/02 00:47:25;;;;;;;12.80;4.65;;;4.40;99.90;;;;;;4944237;28;20509;-48
2024/02/02 00:49:51;;;;;;;14.55;4.43;;;4.40;99.90;;;;;;4907179;28;20058;-51
2024/02/02 00:52:17;;;;;;;19.20;4.97;;;4.30;99.90;;;;;;4872489;28;20117;-53
2024/02/02 00:54:43;;;;;;;14.38;4.38;;;4.40;99.90;;;;;;4849714;28;20042;-55
2024/02/02 00:57:08;;;;;;;20.27;3.72;;;4.30;99.90;;;;;;4923741;28;21707;-53
2024/02/02 00:59:34;;;;;;;13.18;3.63;;;4.30;99.90;;;;;;4943469;28;20034;-53
2024/02/02 01:02:00;;;;;;;10.95;4.32;;;4.30;99.90;;;;;;4886610;28;20062;-47
2024/02/02 01:04:25;;;;;;;16.15;4.43;;;4.30;99.90;;;;;;4904756;28;20027;-50
2024/02/02 01:06:51;;;;;;;18.33;4.03;;;4.30;99.90;;;;;;4900336;22;20063;-84
2024/02/02 01:09:16;;;;;;;21.85;4.10;;;4.30;99.90;;;;;;4897325;28;20110;-84
2024/02/02 01:11:53;;;;;;;11.00;4.45;;;4.30;99.90;;;;;;4892060;28;20348;-83
2024/02/02 01:14:19;;;;;;;12.45;3.85;;;4.30;99.90;;;;;;4928226;28;20035;-84
2024/02/02 01:16:45;;;;;;;11.18;3.95;;;4.30;99.90;;;;;;4907661;28;20073;-84
2024/02/02 01:19:10;;;;;;;17.17;4.35;;;4.30;99.90;;;;;;4939712;28;20059;-84
2024/02/02 01:21:37;;;;;;;18.30;3.85;;;4.30;99.90;;;;;;4922674;28;20023;-82
2024/02/02 01:24:02;;;;;;;13.27;3.45;;;4.30;99.90;;;;;;4921531;28;20157;-84
2024/02/02 01:26:29;;;;;;;10.23;3.45;;;4.40;99.90;;;;;;4932059;28;20126;-85
2024/02/02 01:28:55;;;;;;;13.23;3.22;;;4.30;99.90;;;;;;4907629;28;20026;-83
2024/02/02 01:31:20;;;;;;;11.15;3.95;;;4.30;99.90;;;;;;4895336;28;20023;-84
2024/02/02 01:33:46;;;;;;;11.35;3.78;;;4.30;99.90;;;;;;4901184;28;20043;-84
2024/02/02 01:36:11;;;;;;;13.70;3.20;;;4.30;99.90;;;;;;4934815;28;20031;-85
2024/02/02 01:38:38;;;;;;;8.02;2.75;;;4.30;99.90;;;;;;4915325;28;20051;-84
2024/02/02 01:41:04;;;;;;;14.00;4.65;;;4.30;99.90;;;;;;4909387;28;20207;-83
2024/02/02 01:43:30;;;;;;;13.52;4.03;;;4.30;99.90;;;;;;4913796;28;20023;-85
2024/02/02 01:45:56;;;;;;;12.48;3.67;;;4.30;99.90;;;;;;4906093;28;21516;-85
2024/02/02 01:48:22;;;;;;;8.00;4.05;;;4.40;99.90;;;;;;4931902;28;20036;-87
2024/02/02 01:50:56;;;;;;;10.80;4.05;;;4.40;99.90;;;;;;4904407;28;20024;-83
2024/02/02 01:53:22;;;;;;;13.60;3.65;;;4.40;99.90;;;;;;4933260;28;20050;-85
2024/02/02 01:55:48;;;;;;;12.00;4.03;;;4.40;99.90;;;;;;4904593;28;20022;-85
2024/02/02 01:58:13;;;;;;;12.98;3.58;;;4.30;99.90;;;;;;4900226;28;20104;-87
2024/02/02 02:00:39;;;;;;;11.10;3.33;;;4.40;99.90;;;;;;4914093;28;20051;-80
2024/02/02 02:03:05;;;;;;;13.00;4.22;;;4.40;99.90;;;;;;4929881;28;21006;-85
2024/02/02 02:05:30;;;;;;;10.93;4.30;;;4.40;99.90;;;;;;4924473;28;20090;-84
2024/02/02 02:07:56;;;;;;;18.92;4.13;;;4.40;99.90;;;;;;4900248;28;20042;-84
2024/02/02 02:10:24;;;;;;;14.10;3.50;;;4.40;99.90;;;;;;4911565;28;20035;-84
2024/02/02 02:12:51;;;;;;;19.30;4.22;;;4.40;99.90;;;;;;4898809;28;20038;-84
2024/02/02 02:15:16;;;;;;;13.20;3.17;;;4.40;99.90;;;;;;4924940;28;20031;-86
2024/02/02 02:18:00;;;;;;;10.98;3.45;;;4.40;99.90;;;;;;4919750;28;20015;-83
2024/02/02 02:20:27;;;;;;;12.45;3.42;;;4.40;99.90;;;;;;4939459;28;20023;-84
2024/02/02 02:22:53;;;;;;;13.88;3.83;;;4.40;99.90;;;;;;4924396;28;20027;-85
2024/02/02 02:25:19;;;;;;;13.95;3.40;;;4.40;99.90;;;;;;4901533;28;20567;-84
2024/02/02 02:27:45;;;;;;;8.27;3.00;;;4.40;99.90;;;;;;4908211;28;20027;-85
2024/02/02 02:30:12;;;;;;;12.10;3.78;;;4.50;99.90;;;;;;4925255;28;20086;-84
2024/02/02 02:32:38;;;;;;;13.55;3.72;;;4.50;99.90;;;;;;4918094;28;20038;-84
2024/02/02 02:35:03;;;;;;;13.60;3.05;;;4.50;99.90;;;;;;4917655;28;20027;-85
2024/02/02 02:37:30;;;;;;;6.50;3.22;;;4.50;99.90;;;;;;4923542;28;20256;-84
2024/02/02 02:39:56;;;;;;;14.40;3.70;;;4.50;99.90;;;;;;4920713;28;21162;-84
2024/02/02 02:42:21;;;;;;;11.80;3.75;;;4.50;99.90;;;;;;4947826;28;20030;-85
2024/02/02 02:44:47;;;;;;;17.92;4.13;;;4.50;99.90;;;;;;4918403;28;20051;-85
2024/02/02 02:47:12;;;;;;;17.95;3.47;;;4.50;99.90;;;;;;4917690;28;20024;-85
2024/02/02 02:49:38;;;;;;;10.52;3.55;;;4.50;99.90;;;;;;4921474;28;20630;-84
2024/02/02 02:52:04;;;;;;;7.38;2.78;;;4.60;99.90;;;;;;4921214;28;21042;-84
2024/02/02 02:54:32;;;;;;;8.23;3.67;;;4.50;99.90;;;;;;4948009;28;20031;-84
2024/02/02 02:56:58;;;;;;;8.60;3.20;;;4.60;99.90;;;;;;4920696;28;20019;-86
2024/02/02 02:59:23;;;;;;;10.90;3.35;;;4.60;99.90;;;;;;4921272;28;20023;-84
2024/02/02 03:01:49;;;;;;;16.70;3.30;;;4.60;99.90;;;;;;4920508;28;20387;-85
2024/02/02 03:04:14;;;;;;;10.40;2.88;;;4.60;99.90;;;;;;4922515;28;20033;-84
2024/02/02 03:06:46;;;;;;;12.77;3.47;;;4.60;99.90;;;;;;4932267;28;20039;-82
2024/02/02 03:09:12;;;;;;;12.27;3.63;;;4.60;99.90;;;;;;4945211;28;20049;-85
2024/02/02 03:11:38;;;;;;;12.68;3.45;;;4.60;99.90;;;;;;4919802;28;20770;-84
2024/02/02 03:14:03;;;;;;;15.13;4.07;;;4.70;99.90;;;;;;4912409;28;20035;-85
2024/02/02 03:16:29;;;;;;;14.80;4.57;;;4.70;99.90;;;;;;4909688;28;20043;-85
2024/02/02 03:18:55;;;;;;;15.00;4.10;;;4.70;99.90;;;;;;4915297;28;21600;-85
2024/02/02 03:21:20;;;;;;;13.73;3.85;;;4.70;99.90;;;;;;4950761;28;20022;-85
2024/02/02 03:23:46;;;;;;;10.32;3.67;;;4.70;99.90;;;;;;4917855;28;20031;-85
2024/02/02 03:26:12;;;;;;;9.18;3.72;;;4.70;99.90;;;;;;4911264;28;20056;-86
2024/02/02 03:28:37;;;;;;;11.88;4.00;;;4.70;99.90;;;;;;4915340;28;20096;-85
2024/02/02 03:31:03;;;;;;;13.93;3.80;;;4.80;99.90;;;;;;4913486;28;20035;-85
2024/02/02 03:33:29;;;;;;;8.80;3.33;;;4.70;99.90;;;;;;4952474;28;20546;-85
2024/02/02 03:35:54;;;;;;;11.48;3.60;;;4.70;99.90;;;;;;4926676;28;20019;-84
2024/02/02 03:38:20;;;;;;;20.88;4.50;;;4.70;99.90;;;;;;4926136;28;20086;-84
2024/02/02 03:40:45;;;;;;;9.15;3.90;;;4.70;99.90;;;;;;4912229;28;20740;-84
2024/02/02 03:43:11;;;;;;;11.88;3.95;;;4.80;99.90;;;;;;4914238;28;20015;-85
2024/02/02 03:45:43;;;;;;;11.52;4.10;;;4.80;99.90;;;;;;4930094;28;20027;-82
2024/02/02 03:48:09;;;;;;;13.98;4.45;;;4.80;99.90;;;;;;4955059;28;20019;-84
2024/02/02 03:50:35;;;;;;;15.75;4.85;;;4.80;99.90;;;;;;4922375;28;20138;-85
2024/02/02 03:53:00;;;;;;;15.05;4.72;;;4.80;99.90;;;;;;4912616;28;20034;-85
2024/02/02 03:55:26;;;;;;;13.38;4.57;;;4.80;99.90;;;;;;4914770;28;20027;-85
2024/02/02 03:57:52;;;;;;;10.07;4.00;;;4.80;99.90;;;;;;4922855;28;20046;-85
2024/02/02 04:00:18;;;;;;;12.82;4.65;;;4.80;99.90;;;;;;4955172;28;20025;-85
2024/02/02 04:02:47;;;;;;;11.63;3.60;;;4.80;99.90;;;;;;4925781;28;20746;-86
2024/02/02 04:05:15;;;;;;;12.30;4.85;;;4.80;99.90;;;;;;4915308;28;20027;-84
2024/02/02 04:07:41;;;;;;;16.83;4.88;;;4.80;99.90;;;;;;4920893;28;20114;-85
2024/02/02 04:10:08;;;;;;;15.60;5.47;;;4.90;99.90;;;;;;4915338;28;20039;-84
2024/02/02 04:12:34;;;;;;;19.95;4.82;;;4.90;99.90;;;;;;4938270;28;20034;-83
2024/02/02 04:15:00;;;;;;;12.77;5.22;;;4.90;99.90;;;;;;4908070;28;20043;-84
2024/02/02 04:17:25;;;;;;;15.27;4.90;;;4.90;99.90;;;;;;4919651;28;20027;-86
2024/02/02 04:19:51;;;;;;;21.52;5.72;;;4.90;99.90;;;;;;4920080;28;20022;-84
2024/02/02 04:22:17;;;;;;;14.45;5.45;;;5.00;99.90;;;;;;4914166;28;20371;-84
2024/02/02 04:24:43;;;;;;;10.02;4.90;;;4.90;99.90;;;;;;4923488;28;20023;-82
2024/02/02 04:27:09;;;;;;;13.35;5.63;;;4.90;99.90;;;;;;4961478;28;20442;-84
2024/02/02 04:29:35;;;;;;;16.77;5.43;;;4.90;99.90;;;;;;4931357;28;20029;-86
2024/02/02 04:32:00;;;;;;;16.67;6.30;;;5.00;99.90;;;;;;4912745;28;20150;-85
2024/02/02 04:34:26;;;;;;;13.85;4.45;;;4.90;99.90;;;;;;4916095;28;20546;-84
2024/02/02 04:36:55;;;;;;;15.43;5.53;;;5.00;99.90;;;;;;4915637;28;22037;-85
2024/02/02 04:39:21;;;;;;;15.30;5.40;;;4.90;99.90;;;;;;4975071;23;20046;-59
2024/02/02 04:41:46;;;;;;;20.67;5.88;;;4.90;99.90;;;;;;4936066;28;20037;-58
2024/02/02 04:44:12;;;;;;;16.77;5.72;;;5.00;99.90;;;;;;4917063;28;20118;-57
2024/02/02 04:46:37;;;;;;;18.00;6.50;;;5.00;99.90;;;;;;4915761;28;20031;-59
2024/02/02 04:49:03;;;;;;;13.23;5.63;;;5.00;99.90;;;;;;4904000;28;20034;-58
2024/02/02 04:51:29;;;;;;;13.55;5.13;;;5.00;99.90;;;;;;4961253;28;20471;-58
2024/02/02 04:53:54;;;;;;;17.77;6.57;;;5.00;99.90;;;;;;4924610;28;20054;-61
2024/02/02 04:56:20;;;;;;;16.10;5.97;;;5.00;99.90;;;;;;4932435;28;20034;-59
2024/02/02 04:58:46;;;;;;;13.05;5.45;;;5.00;99.90;;;;;;4915645;28;20031;-58
2024/02/02 05:01:11;;;;;;;11.98;4.65;;;5.00;99.90;;;;;;4901124;28;20038;-57
2024/02/02 05:03:37;;;;;;;13.73;5.63;;;5.00;99.90;;;;;;4956886;28;20042;-61
2024/02/02 05:06:02;;;;;;;18.92;6.18;;;5.00;99.90;;;;;;4955933;28;20418;-58
2024/02/02 05:08:28;;;;;;;11.13;5.43;;;5.00;99.90;;;;;;4930718;28;20032;-57
2024/02/02 05:10:54;;;;;;;17.10;5.85;;;5.00;99.90;;;;;;4901416;28;20038;-59
2024/02/02 05:13:19;;;;;;;19.45;6.38;;;5.00;99.90;;;;;;4923254;28;20081;-59
2024/02/02 05:15:45;;;;;;;15.40;5.35;;;5.00;99.90;;;;;;4909013;28;20042;-59
2024/02/02 05:18:11;;;;;;;17.33;6.32;;;5.00;99.90;;;;;;4973655;28;20610;-58
2024/02/02 05:20:38;;;;;;;13.98;6.15;;;5.00;99.90;;;;;;4928471;28;20070;-59
2024/02/02 05:23:04;;;;;;;19.60;6.45;;;5.00;99.90;;;;;;4908394;28;20049;-56
2024/02/02 05:25:29;;;;;;;17.58;6.85;;;5.00;99.90;;;;;;4914130;28;20117;-58
2024/02/02 05:27:55;;;;;;;14.20;6.00;;;5.00;99.90;;;;;;4916544;28;20066;-60
2024/02/02 05:30:21;;;;;;;14.23;6.22;;;5.00;99.90;;;;;;4972556;28;20034;-58
2024/02/02 05:32:46;;;;;;;21.67;6.90;;;5.00;99.90;;;;;;4929055;28;20096;-59
2024/02/02 05:35:12;;;;;;;20.27;6.38;;;5.00;99.90;;;;;;4904417;28;20062;-59
2024/02/02 05:37:37;;;;;;;15.07;7.03;;;5.00;99.90;;;;;;4921770;28;20085;-59
2024/02/02 05:40:04;;;;;;;15.57;7.30;;;5.00;99.90;;;;;;4910764;28;20042;-60
2024/02/02 05:42:29;;;;;;;17.17;7.13;;;5.00;99.90;;;;;;4976386;28;20030;-60
2024/02/02 05:44:55;;;;;;;15.25;6.53;;;5.00;99.90;;;;;;4918596;28;20435;-64
2024/02/02 05:47:21;;;;;;;19.90;6.38;;;5.00;99.90;;;;;;4933880;28;20085;-60
2024/02/02 05:49:46;;;;;;;20.08;7.28;;;5.00;99.90;;;;;;4900703;28;20427;-61
2024/02/02 05:52:12;;;;;;;12.30;5.85;;;5.10;99.90;;;;;;4927789;28;20030;-60
2024/02/02 05:54:37;;;;;;;20.95;7.82;;;5.00;99.90;;;;;;4936408;28;20152;-63
2024/02/02 05:57:03;;;;;;;14.65;7.18;;;5.00;99.90;;;;;;4926570;28;20034;-60
2024/02/02 05:59:29;;;;;;;14.20;6.97;;;5.00;99.90;;;;;;4928399;28;20030;-61
2024/02/02 06:01:54;;;;;;;21.10;7.90;;;5.00;99.90;;;;;;4921732;28;20031;-61
2024/02/02 06:04:20;;;;;;;18.15;8.25;;;5.00;99.90;;;;;;4897905;28;20038;-60
2024/02/02 06:06:45;;;;;;;15.27;7.18;;;5.00;99.90;;;;;;4905773;28;20116;-61
2024/02/02 06:09:11;;;;;;;17.70;7.45;;;5.00;99.90;;;;;;4978028;28;20035;-61
2024/02/02 06:11:37;;;;;;;16.35;7.25;;;5.00;99.90;;;;;;4918759;28;20097;-62
2024/02/02 06:14:03;;;;;;;15.18;7.63;;;5.00;99.90;;;;;;4905543;28;20041;-61
2024/02/02 06:16:28;;;;;;;18.17;7.13;;;5.00;99.90;;;;;;4888444;28;20014;-59
2024/02/02 06:18:54;;;;;;;17.30;7.43;;;5.10;99.90;;;;;;4901854;28;22433;-59
2024/02/02 06:21:20;;;;;;;15.77;7.65;;;5.10;99.90;;;;;;4967782;28;20026;-62
2024/02/02 06:23:46;;;;;;;15.20;8.13;;;5.00;99.90;;;;;;4922141;28;20037;-62
2024/02/02 06:26:11;;;;;;;22.23;9.85;;;5.10;99.90;;;;;;4877382;28;20034;-61
2024/02/02 06:28:37;;;;;;;23.70;8.27;;;5.10;99.90;;;;;;4929623;28;20062;-60
2024/02/02 06:31:04;;;;;;;24.48;9.10;;;5.10;99.90;;;;;;4911244;28;21385;-63
2024/02/02 06:33:29;;;;;;;20.42;9.15;;;5.10;99.90;;;;;;4965207;28;20022;-61
2024/02/02 06:35:55;;;;;;;19.27;8.80;;;5.10;99.90;;;;;;4908734;28;20553;-63
2024/02/02 06:38:21;;;;;;;17.38;9.77;;;5.10;99.90;;;;;;4923304;28;20042;-61
2024/02/02 06:40:46;;;;;;;15.05;8.52;;;5.10;99.90;;;;;;4872822;28;20029;-59
2024/02/02 06:43:12;;;;;;;22.45;8.20;;;5.10;99.90;;;;;;4912016;28;20135;-60
2024/02/02 06:45:38;;;;;;;17.20;7.90;;;5.10;99.90;;;;;;4941585;28;20057;-62
2024/02/02 06:48:04;;;;;;;18.30;7.72;;;5.10;99.90;;;;;;4926262;28;20487;-58
2024/02/02 06:50:30;;;;;;;17.08;7.97;;;5.00;99.90;;;;;;4915165;28;20073;-59
2024/02/02 06:52:56;;;;;;;16.40;9.00;;;5.10;99.90;;;;;;4904920;28;20030;-59
2024/02/02 06:55:22;;;;;;;24.60;8.38;;;5.00;99.90;;;;;;4893638;28;20110;-59
2024/02/02 06:57:48;;;;;;;17.35;7.80;;;5.10;99.90;;;;;;4915470;28;20023;-58
2024/02/02 07:00:15;;;;;;;18.23;7.93;;;5.10;99.90;;;;;;4966314;28;21601;-55
2024/02/02 07:02:42;;;;;;;16.20;8.80;;;5.00;99.90;;;;;;4916770;28;20532;-60
2024/02/02 07:05:08;;;;;;;23.33;8.98;;;5.10;99.90;;;;;;4885795;28;20064;-59
2024/02/02 07:07:34;;;;;;;20.15;8.95;;;5.10;99.90;;;;;;4933290;28;20034;-60
2024/02/02 07:09:59;;;;;;;13.82;8.20;;;5.10;99.90;;;;;;4928229;28;22163;-59
2024/02/02 07:12:57;;;;;;;20.23;8.32;;;5.10;99.90;;;;;;4962738;28;20030;-60
2024/02/02 07:15:28;;;;;;;21.00;8.63;;;5.10;99.90;;;;;;4965209;28;20023;-59
2024/02/02 07:17:54;;;;;;;17.30;8.48;;;5.10;99.90;;;;;;4930656;28;20026;-61
2024/02/02 07:20:23;;;;;;;15.57;8.80;;;5.10;99.90;;;;;;4931139;28;20027;-59
2024/02/02 07:22:51;;;;;;;22.23;8.80;;;5.10;99.90;;;;;;4919147;28;20051;-59
2024/02/02 07:25:22;;;;;;;19.75;8.95;;;5.10;99.90;;;;;;4901329;28;20031;-60
2024/02/02 07:28:07;;;;;;;19.48;10.27;;;5.10;99.90;;;;;;4919745;28;20038;-61
2024/02/02 07:30:47;;;;;;;19.67;9.23;;;5.10;99.90;;;;;;4963523;28;20089;-60
2024/02/02 07:33:28;;;;;;;29.00;10.77;;;5.10;99.90;;;;;;4959800;28;20394;-59
2024/02/02 07:35:57;;;;;;;24.00;10.07;;;5.10;99.90;;;;;;4930560;28;20105;-62
2024/02/02 07:38:46;;;;;;;14.30;8.52;;;5.20;99.90;;;;;;4925976;28;20029;-61
2024/02/02 07:41:13;;;;;;;21.63;8.82;;;5.10;99.90;;;;;;4925700;28;20034;-60
2024/02/02 07:43:39;;;;;;;17.55;10.52;;;5.10;99.90;;;;;;4918495;28;20031;-60
2024/02/02 07:46:05;;;;;;;22.95;10.98;;;5.10;99.90;;;;;;4923625;28;21637;-61
2024/02/02 07:48:32;;;;;;;26.50;11.13;;;5.20;99.90;;;;;;4944399;28;20118;-61
2024/02/02 07:50:58;;;;;;;23.50;12.32;;;5.20;99.90;;;;;;4897590;28;20707;-63
2024/02/02 07:53:24;;;;;;;24.10;11.07;;;5.20;99.90;;;;;;4923953;28;20039;-60
2024/02/02 07:55:49;;;;;;;23.73;12.25;;;5.20;99.90;;;;;;4874776;28;20026;-59
2024/02/02 07:58:17;;;;;;;24.33;11.27;;;5.20;99.90;;;;;;4926096;28;20624;-59
2024/02/02 08:00:43;;;;;;;19.75;10.20;;;5.20;99.90;;;;;;4902520;28;20026;-62
2024/02/02 08:03:09;;;;;;;21.30;11.95;;;5.20;99.90;;;;;;4953728;28;20034;-59
2024/02/02 08:05:38;;;;;;;22.98;10.15;;;5.20;99.90;;;;;;4920309;28;20042;-59
2024/02/02 08:08:04;;;;;;;20.10;11.57;;;5.20;99.90;;;;;;4900542;28;20031;-60
2024/02/02 08:10:30;;;;;;;18.67;10.27;;;5.20;99.90;;;;;;4915616;28;20124;-58
2024/02/02 08:12:56;;;;;;;20.48;11.60;;;5.20;99.90;;;;;;4883826;28;20117;-59
2024/02/02 08:15:21;;;;;;;23.58;11.73;;;5.20;99.90;;;;;;4954928;28;20062;-60
2024/02/02 08:17:47;;;;;;;20.35;11.15;;;5.20;99.90;;;;;;4919353;28;20388;-60
2024/02/02 08:20:14;;;;;;;24.95;11.85;;;5.20;99.90;;;;;;4920763;28;20118;-60
2024/02/02 08:22:43;;;;;;;22.60;11.77;;;5.10;99.90;;;;;;4895035;28;20093;-59
2024/02/02 08:25:09;;;;;;;21.50;12.35;;;5.10;99.90;;;;;;4874161;28;22140;-60
2024/02/02 08:27:34;;;;;;;23.15;12.05;;;5.10;99.90;;;;;;4925305;28;20061;-60
2024/02/02 08:30:00;;;;;;;19.23;10.82;;;5.10;99.90;;;;;;4873026;28;20049;-62
2024/02/02 08:32:26;;;;;;;22.60;12.25;;;5.10;99.90;;;;;;4913490;28;20031;-60
2024/02/02 08:34:51;;;;;;;21.25;11.70;;;5.10;99.90;;;;;;4873534;28;20054;-60
2024/02/02 08:37:17;;;;;;;19.75;11.27;;;5.10;99.90;;;;;;4874702;28;20445;-62
2024/02/02 08:39:43;;;;;;;24.83;11.73;;;5.10;99.90;;;;;;4930104;28;20049;-62
2024/02/02 08:42:17;;;;;;;26.38;12.60;;;5.10;99.90;;;;;;4946102;28;20432;-60
2024/02/02 08:44:43;;;;;;;18.90;12.20;;;5.00;99.90;;;;;;4907998;28;20122;-61
2024/02/02 08:47:09;;;;;;;22.35;12.63;;;5.00;99.90;;;;;;4908982;28;20045;-60
2024/02/02 08:49:53;;;;;;;18.35;12.32;;;5.10;99.90;;;;;;4857154;28;20474;-62
2024/02/02 08:52:33;;;;;;;19.67;11.02;;;5.00;99.90;;;;;;4923480;28;20038;-62
2024/02/02 08:55:03;;;;;;;22.67;11.63;;;5.00;99.90;;;;;;4903907;28;22259;-60
2024/02/02 08:57:33;;;;;;;19.55;12.20;;;5.00;99.90;;;;;;4965350;28;20487;-61
2024/02/02 09:00:05;;;;;;;21.27;11.93;;;5.00;99.90;;;;;;4872205;28;20411;-62
2024/02/02 09:02:52;;;;;;;23.70;12.13;;;5.00;99.90;;;;;;4905884;28;20050;-60
2024/02/02 09:05:38;;;;;;;19.48;12.55;;;5.10;99.90;;;;;;4907669;28;20038;-61
2024/02/02 09:08:25;;;;;;;23.08;11.45;;;5.00;99.90;;;;;;4915782;28;20038;-61
2024/02/02 09:10:57;;;;;;;24.05;11.65;;;5.00;99.90;;;;;;4871528;28;20030;-61
2024/02/02 09:13:35;;;;;;;20.13;12.15;;;5.10;99.90;;;;;;4892053;28;20447;-61
2024/02/02 09:16:01;;;;;;;22.95;11.18;;;5.10;99.90;;;;;;4909551;28;21030;-63
2024/02/02 09:18:30;;;;;;;19.55;11.70;;;5.10;99.90;;;;;;4951605;28;20463;-60
2024/02/02 09:20:56;;;;;;;28.40;12.35;;;5.10;99.90;;;;;;4901545;28;20027;-65
2024/02/02 09:23:21;;;;;;;27.23;12.63;;;5.20;99.90;;;;;;4912616;28;20057;-61
2024/02/02 09:25:47;;;;;;;19.15;10.70;;;5.20;99.90;;;;;;4848000;28;20034;-62
2024/02/02 09:28:25;;;;;;;20.20;11.15;;;5.20;99.90;;;;;;4912279;28;20573;-63
2024/02/02 09:30:56;;;;;;;19.27;9.70;;;5.20;99.90;;;;;;4890779;28;20121;-62
2024/02/02 09:33:31;;;;;;;23.40;11.55;;;5.20;99.90;;;;;;4900275;28;21863;-61
2024/02/02 09:36:03;;;;;;;35.35;11.75;;;5.20;99.90;;;;;;4891437;28;20038;-62
2024/02/02 09:38:29;;;;;;;23.45;11.27;;;5.20;99.90;;;;;;4895235;28;20026;-60
2024/02/02 09:41:01;;;;;;;24.15;11.02;;;5.30;99.90;;;;;;4905054;28;20042;-61
2024/02/02 09:43:51;;;;;;;23.40;12.10;;;5.30;99.90;;;;;;4928149;28;20113;-61
2024/02/02 09:46:23;;;;;;;17.98;9.55;;;5.30;99.90;;;;;;4899586;28;20038;-62
2024/02/02 09:48:54;;;;;;;22.00;10.63;;;5.30;99.90;;;;;;4873650;28;20030;-64
2024/02/02 09:51:41;;;;;;;27.27;12.07;;;5.40;99.90;;;;;;4955989;28;20573;-62
2024/02/02 09:54:09;;;;;;;20.13;10.20;;;5.40;99.90;;;;;;4910003;28;20037;-61
2024/02/02 09:56:46;;;;;;;18.80;10.98;;;5.40;99.90;;;;;;4903691;28;20022;-62
2024/02/02 09:59:32;;;;;;;25.30;11.27;;;5.40;99.90;;;;;;4884338;28;20027;-61
2024/02/02 10:02:35;;;;;;;25.05;10.55;;;5.50;99.90;;;;;;4879659;28;22540;-61
2024/02/02 10:05:28;;;;;;;23.45;10.65;;;5.50;99.90;;;;;;4879579;28;20396;-62
2024/02/02 10:08:05;;;;;;;25.65;10.77;;;5.50;99.90;;;;;;4899160;28;21192;-58
2024/02/02 10:10:37;;;;;;;23.48;10.13;;;5.50;99.90;;;;;;4905373;28;20491;-61
2024/02/02 10:13:39;;;;;;;20.10;9.63;;;5.50;99.90;;;;;;4898894;28;21677;-61
2024/02/02 10:16:32;;;;;;;26.77;11.13;;;5.60;99.90;;;;;;4920150;28;20782;-60
2024/02/02 10:19:20;;;;;;;22.27;10.52;;;5.60;99.90;;;;;;4900272;28;20075;-59
2024/02/02 10:22:11;;;;;;;26.98;11.43;;;5.60;99.90;;;;;;4919461;28;20065;-63
2024/02/02 10:25:08;;;;;;;44.30;20.77;;;5.70;99.90;;;;;;4901897;28;20030;-61
2024/02/02 10:27:52;;;;;;;;;;;5.70;99.90;;;;;;4949214;28;20062;-61
2024/02/02 10:30:39;;;;;;;31.40;16.77;;;5.80;99.90;;;;;;4939337;28;19910;-61
2024/02/02 10:33:08;;;;;;;28.85;13.63;;;5.80;99.90;;;;;;4889015;28;20034;-61
2024/02/02 10:35:37;;;;;;;28.50;11.15;;;5.80;99.90;;;;;;4895714;28;20022;-61
2024/02/02 10:38:30;;;;;;;20.50;11.27;;;5.90;99.90;;;;;;4885673;28;20030;-61
2024/02/02 10:41:07;;;;;;;26.60;14.77;;;5.90;99.90;;;;;;4901860;28;20598;-60
2024/02/02 10:43:50;;;;;;;28.73;14.52;;;5.90;99.90;;;;;;4939877;28;20539;-64
2024/02/02 10:46:40;;;;;;;25.55;14.65;;;5.90;99.90;;;;;;4883408;28;20399;-61
2024/02/02 10:49:41;;;;;;;18.55;10.52;;;5.90;99.90;;;;;;4888117;28;21213;-58
2024/02/02 10:52:19;;;;;;;17.05;9.23;;;6.00;99.90;;;;;;4878286;28;21731;-61
2024/02/02 10:55:00;;;;;;;18.30;8.65;;;6.00;99.90;;;;;;4923696;28;20638;-63
2024/02/02 10:57:26;;;;;;;20.48;8.95;;;6.00;99.90;;;;;;4940153;28;20030;-61
2024/02/02 11:00:01;;;;;;;23.02;8.75;;;6.10;99.90;;;;;;4892930;28;20095;-61
2024/02/02 11:02:51;;;;;;;17.85;9.25;;;6.10;99.90;;;;;;4900598;28;20056;-60
2024/02/02 11:05:36;;;;;;;21.20;9.63;;;6.10;99.90;;;;;;4891979;28;20026;-60
2024/02/02 11:08:06;;;;;;;18.40;9.15;;;6.10;99.90;;;;;;4887396;28;20026;-59
2024/02/02 11:10:49;;;;;;;20.63;8.15;;;6.10;99.90;;;;;;4920617;28;20117;-60
2024/02/02 11:13:35;;;;;;;17.08;9.25;;;6.20;99.90;;;;;;4921294;28;20691;-59
2024/02/02 11:16:18;;;;;;;15.68;9.00;;;6.20;99.90;;;;;;4900746;28;21599;-62
2024/02/02 11:19:37;;;;;;;18.80;8.10;;;6.10;99.90;;;;;;4940537;28;20387;-63
2024/02/02 11:22:10;;;;;;;28.15;8.93;;;6.10;99.90;;;;;;4872735;28;21391;-63
2024/02/02 11:24:52;;;;;;;14.57;7.65;;;6.10;99.90;;;;;;4943386;28;20053;-62
2024/02/02 11:27:51;;;;;;;16.20;8.10;;;6.10;99.90;;;;;;4941716;28;20380;-63
2024/02/02 11:30:30;;;;;;;19.08;8.07;;;6.10;99.90;;;;;;4931584;28;20401;-61
2024/02/02 11:33:28;;;;;;;17.63;8.10;;;6.20;99.90;;;;;;4889817;28;20030;-58
2024/02/02 11:36:23;;;;;;;18.00;8.10;;;6.10;99.90;;;;;;4939316;28;20041;-59
2024/02/02 11:39:15;;;;;;;18.85;8.30;;;6.20;99.90;;;;;;4935999;28;20137;-61
2024/02/02 11:41:43;;;;;;;21.05;8.80;;;6.20;99.90;;;;;;4954066;28;20502;-61
2024/02/02 11:44:11;;;;;;;21.08;7.90;;;6.20;99.90;;;;;;4951720;28;20031;-60
2024/02/02 11:46:38;;;;;;;21.70;9.25;;;6.20;99.90;;;;;;4964658;28;20114;-61
2024/02/02 11:49:16;;;;;;;20.83;8.40;;;6.20;99.90;;;;;;4968539;28;20026;-61
2024/02/02 11:51:51;;;;;;;21.02;8.90;;;6.30;99.90;;;;;;4946427;28;20037;-62
2024/02/02 11:54:26;;;;;;;14.93;8.48;;;6.30;99.90;;;;;;4937862;28;20045;-61
2024/02/02 11:56:53;;;;;;;19.90;8.88;;;6.30;99.90;;;;;;4934922;28;20018;-61
2024/02/02 11:59:31;;;;;;;19.85;8.25;;;6.30;99.90;;;;;;4955319;28;20018;-61
2024/02/02 12:02:03;;;;;;;21.77;8.50;;;6.30;99.90;;;;;;4934172;28;20037;-60
2024/02/02 12:04:44;;;;;;;16.42;8.57;;;6.30;99.90;;;;;;4980255;28;20026;-60
2024/02/02 12:07:27;;;;;;;16.38;8.30;;;6.30;99.90;;;;;;4980022;28;20034;-59
2024/02/02 12:10:04;;;;;;;22.73;9.90;;;6.40;99.90;;;;;;4947249;28;20054;-60
2024/02/02 12:12:37;;;;;;;19.50;8.80;;;6.40;99.90;;;;;;4952843;28;20058;-61
2024/02/02 12:15:04;;;;;;;23.42;9.15;;;6.40;99.90;;;;;;4935994;28;20117;-60
2024/02/02 12:17:30;;;;;;;18.17;8.38;;;6.40;99.90;;;;;;4948195;28;20054;-60
2024/02/02 12:19:59;;;;;;;23.13;9.40;;;6.40;99.90;;;;;;4937471;28;20041;-60
2024/02/02 12:22:25;;;;;;;18.50;8.15;;;6.40;99.90;;;;;;4977534;28;20435;-61
2024/02/02 12:24:52;;;;;;;20.63;8.57;;;6.40;99.90;;;;;;4950793;28;20053;-61
2024/02/02 12:27:18;;;;;;;17.00;7.90;;;6.40;99.90;;;;;;4946368;28;20524;-60
2024/02/02 12:29:44;;;;;;;14.38;8.20;;;6.50;99.90;;;;;;4947382;28;20026;-61
2024/02/02 12:32:10;;;;;;;19.67;9.23;;;6.50;99.90;;;;;;4932440;28;20112;-61
2024/02/02 12:34:37;;;;;;;25.88;10.10;;;6.50;99.90;;;;;;4960729;28;20034;-64
2024/02/02 12:37:04;;;;;;;17.83;8.80;;;6.50;99.90;;;;;;4982149;28;20026;-61
2024/02/02 12:39:36;;;;;;;19.38;8.52;;;6.50;99.90;;;;;;4954268;28;20121;-61
2024/02/02 12:42:03;;;;;;;23.63;8.45;;;6.50;99.90;;;;;;4934772;28;20045;-60
2024/02/02 12:44:32;;;;;;;26.67;9.00;;;6.60;99.90;;;;;;4919041;28;20027;-60
2024/02/02 12:47:00;;;;;;;18.65;8.73;;;6.60;99.90;;;;;;4942065;28;21399;-61
2024/02/02 12:49:25;;;;;;;26.73;9.00;;;6.60;99.90;;;;;;4958250;28;20611;-61
2024/02/02 12:51:54;;;;;;;24.90;9.38;;;6.60;99.90;;;;;;4935415;28;20057;-61
2024/02/02 12:54:20;;;;;;;27.88;8.75;;;6.60;99.90;;;;;;4933292;28;20545;-61
2024/02/02 12:56:45;;;;;;;19.15;8.65;;;6.60;99.90;;;;;;4931052;28;20030;-61
2024/02/02 12:59:17;;;;;;;21.10;8.63;;;6.60;99.90;;;;;;4932359;28;20054;-60